Time;durP1;ratioP1;P1;durP2;ratioP2;P2;SDS_P1;SDS_P2;PMS_P1;PMS_P2;Temp;Humidity;BMP_temperature;BMP_pressure;BME280_temperature;BME280_humidity;BME280_pressure;Samples;Min_cycle;Max_cycle;Signal;HPM_P1;HPM_P2
2021/05/06 00:06:56;;;;;;;7.80;5.18;;;6.10;87.40;;;;;;5025739;28;20112;-67
2021/05/06 00:10:01;;;;;;;5.55;4.95;;;6.10;87.70;;;;;;5020153;28;20033;-65
2021/05/06 00:29:56;;;;;;;6.70;5.20;;;5.90;88.50;;;;;;5015239;28;20030;-67
2021/05/06 00:33:37;;;;;;;9.27;6.68;;;5.80;88.60;;;;;;5031102;28;20044;-66
2021/05/06 00:36:03;;;;;;;6.15;5.47;;;5.80;88.60;;;;;;5026065;28;20045;-66
2021/05/06 00:38:33;;;;;;;7.72;5.25;;;5.80;88.30;;;;;;5028889;28;20371;-67
2021/05/06 00:54:39;;;;;;;7.10;5.30;;;5.80;88.60;;;;;;5040208;28;20030;-66
2021/05/06 01:04:48;;;;;;;6.68;5.53;;;5.90;88.40;;;;;;5024963;28;20037;-66
2021/05/06 01:10:02;;;;;;;7.32;5.78;;;5.80;88.80;;;;;;5030100;28;20049;-66
2021/05/06 01:12:28;;;;;;;7.30;5.68;;;5.90;88.30;;;;;;5034334;28;20022;-66
2021/05/06 01:14:53;;;;;;;7.78;5.97;;;5.80;88.40;;;;;;5034737;28;20087;-66
2021/05/06 01:17:19;;;;;;;9.98;5.85;;;5.70;88.50;;;;;;5032976;28;20029;-68
2021/05/06 01:19:45;;;;;;;8.63;6.00;;;5.70;88.60;;;;;;5032844;28;20076;-67
2021/05/06 01:22:10;;;;;;;7.03;6.15;;;5.70;88.60;;;;;;5046650;28;20490;-66
2021/05/06 01:24:36;;;;;;;8.73;6.38;;;5.70;88.30;;;;;;5020577;28;20190;-65
2021/05/06 01:27:11;;;;;;;7.22;6.53;;;5.70;88.90;;;;;;5019175;28;20033;-64
2021/05/06 01:34:50;;;;;;;8.65;6.93;;;5.50;89.00;;;;;;5029504;28;20083;-67
2021/05/06 01:37:25;;;;;;;7.57;6.72;;;5.50;88.90;;;;;;5030924;28;20034;-67
2021/05/06 01:42:49;;;;;;;10.05;6.93;;;5.60;88.60;;;;;;5011711;28;20041;-65
2021/05/06 01:47:59;;;;;;;9.05;7.70;;;5.50;89.30;;;;;;5026348;28;20028;-65
2021/05/06 01:51:06;;;;;;;8.25;6.72;;;5.40;89.50;;;;;;5033483;28;20112;-66
2021/05/06 01:59:01;;;;;;;10.85;8.00;;;5.30;90.10;;;;;;5034086;28;20045;-66
2021/05/06 02:01:26;;;;;;;8.75;7.10;;;5.20;90.10;;;;;;5019604;28;20029;-65
2021/05/06 02:03:52;;;;;;;10.27;7.53;;;5.20;90.20;;;;;;5028973;28;20029;-66
2021/05/06 02:06:18;;;;;;;9.52;7.47;;;5.20;90.10;;;;;;5028252;28;20026;-66
2021/05/06 02:08:43;;;;;;;8.48;7.32;;;5.30;90.00;;;;;;5036865;28;20053;-67
2021/05/06 02:11:09;;;;;;;9.27;6.93;;;5.20;90.20;;;;;;5021443;28;20113;-66
2021/05/06 02:13:35;;;;;;;9.23;7.38;;;5.30;90.00;;;;;;5020711;28;20031;-66
2021/05/06 02:16:03;;;;;;;9.88;7.97;;;5.30;90.10;;;;;;5033698;28;20112;-67
2021/05/06 02:18:32;;;;;;;11.70;8.32;;;5.20;90.40;;;;;;5032538;28;20033;-66
2021/05/06 02:21:00;;;;;;;8.25;7.35;;;5.20;90.50;;;;;;5031253;28;20140;-67
2021/05/06 02:23:26;;;;;;;9.05;8.15;;;5.20;90.40;;;;;;5033695;28;20037;-66
2021/05/06 02:25:51;;;;;;;9.52;7.85;;;5.20;90.40;;;;;;5037713;28;20041;-65
2021/05/06 02:28:17;;;;;;;10.10;8.63;;;5.30;90.50;;;;;;5035619;28;20051;-66
2021/05/06 02:30:43;;;;;;;10.95;8.98;;;5.20;90.40;;;;;;5030542;28;20153;-66
2021/05/06 02:33:09;;;;;;;11.35;8.20;;;5.30;90.40;;;;;;5030603;28;20036;-66
2021/05/06 02:35:37;;;;;;;11.07;8.38;;;5.30;90.50;;;;;;5032975;28;20041;-67
2021/05/06 02:38:04;;;;;;;10.57;8.23;;;5.30;90.40;;;;;;5032611;28;20057;-67
2021/05/06 02:40:30;;;;;;;11.10;8.35;;;5.20;90.60;;;;;;5035713;28;20558;-67
2021/05/06 02:42:55;;;;;;;9.93;8.18;;;5.20;90.60;;;;;;5032190;28;20064;-66
2021/05/06 02:45:22;;;;;;;9.55;8.65;;;5.30;90.50;;;;;;5030702;28;20048;-67
2021/05/06 02:47:47;;;;;;;9.88;8.27;;;5.20;90.50;;;;;;5031551;28;20059;-67
2021/05/06 02:50:15;;;;;;;10.43;8.70;;;5.20;90.60;;;;;;5032279;28;20727;-67
2021/05/06 02:52:50;;;;;;;11.15;8.32;;;5.10;90.80;;;;;;5035451;28;20022;-65
2021/05/06 03:02:56;;;;;;;13.38;8.98;;;4.90;91.00;;;;;;5032422;28;20117;-66
2021/05/06 03:05:25;;;;;;;11.02;8.63;;;4.90;91.20;;;;;;5031486;28;20579;-67
2021/05/06 03:10:45;;;;;;;;;;;5.00;91.30;;;;;;5032272;28;20040;-66
2021/05/06 03:23:57;;;;;;;9.45;8.13;;;5.00;91.40;;;;;;5029073;28;20033;-67
2021/05/06 03:26:23;;;;;;;9.73;8.60;;;5.10;91.30;;;;;;5034334;28;20080;-65
2021/05/06 03:29:00;;;;;;;12.60;8.65;;;5.10;91.20;;;;;;5029743;28;20118;-66
2021/05/06 03:32:03;;;;;;;14.63;9.27;;;5.10;91.20;;;;;;5029635;28;20170;-66
2021/05/06 03:42:38;;;;;;;11.05;8.75;;;5.00;91.40;;;;;;5031759;28;20033;-67
2021/05/06 04:30:55;;;;;;;14.57;10.15;;;5.60;90.70;;;;;;5034609;28;20059;-66
2021/05/06 04:36:10;;;;;;;11.23;7.63;;;5.60;90.40;;;;;;5034835;28;20038;-67
2021/05/06 04:38:37;;;;;;;7.93;7.00;;;5.60;90.40;;;;;;5034747;28;20307;-66
2021/05/06 04:54:46;;;;;;;8.85;7.50;;;5.60;90.40;;;;;;5030746;28;20025;-68
2021/05/06 05:05:45;;;;;;;11.13;7.30;;;5.60;90.30;;;;;;5011986;28;20037;-66
2021/05/06 05:08:14;;;;;;;11.65;7.65;;;5.60;90.60;;;;;;5011414;28;20169;-67
2021/05/06 05:23:43;;;;;;;7.50;6.40;;;5.80;90.20;;;;;;5031096;28;20121;-66
2021/05/06 05:26:11;;;;;;;10.38;7.75;;;5.90;90.00;;;;;;5033243;28;20037;-67
2021/05/06 05:28:38;;;;;;;8.80;6.90;;;6.00;89.60;;;;;;5033404;28;20029;-67
2021/05/06 05:31:04;;;;;;;8.63;7.65;;;6.00;89.40;;;;;;5032763;28;20040;-67
2021/05/06 05:33:34;;;;;;;10.50;7.28;;;6.10;89.30;;;;;;5033928;28;20377;-67
2021/05/06 05:36:14;;;;;;;9.55;6.22;;;6.00;88.90;;;;;;5034790;28;20086;-67
2021/05/06 05:38:48;;;;;;;10.63;6.50;;;6.00;88.80;;;;;;5030800;28;20041;-66
2021/05/06 05:56:52;;;;;;;10.55;7.90;;;6.20;89.10;;;;;;5036892;28;20045;-68
2021/05/06 05:59:18;;;;;;;8.10;6.88;;;6.30;89.40;;;;;;5033640;28;20041;-67
2021/05/06 06:01:44;;;;;;;9.38;7.00;;;6.40;89.70;;;;;;5032556;28;20025;-66
2021/05/06 06:04:10;;;;;;;8.63;6.47;;;6.40;88.90;;;;;;5035284;28;20038;-67
2021/05/06 06:06:35;;;;;;;8.00;6.28;;;6.50;88.40;;;;;;5034438;28;20038;-65
2021/05/06 06:09:01;;;;;;;8.68;6.47;;;6.60;88.10;;;;;;5037353;28;20440;-67
2021/05/06 06:11:26;;;;;;;8.43;6.38;;;6.60;88.20;;;;;;5030706;28;20439;-66
2021/05/06 06:13:53;;;;;;;7.93;5.97;;;6.60;87.80;;;;;;5031862;28;20026;-66
2021/05/06 06:18:56;;;;;;;8.10;5.95;;;6.70;87.80;;;;;;5032400;28;20029;-66
2021/05/06 06:23:48;;;;;;;8.00;5.85;;;7.10;87.00;;;;;;5032304;28;20036;-67
2021/05/06 06:26:14;;;;;;;7.93;5.82;;;7.10;86.40;;;;;;5033752;28;20038;-66
2021/05/06 06:28:42;;;;;;;7.05;5.63;;;7.20;86.10;;;;;;5032466;28;20022;-67
2021/05/06 06:31:16;;;;;;;8.65;5.63;;;7.30;85.30;;;;;;5034418;28;20056;-67
2021/05/06 06:33:42;;;;;;;6.63;5.43;;;7.30;85.80;;;;;;5032224;28;20053;-67
2021/05/06 06:36:08;;;;;;;6.35;5.72;;;7.50;85.20;;;;;;5033041;28;20065;-66
2021/05/06 06:38:34;;;;;;;6.00;5.40;;;7.40;84.90;;;;;;5030868;28;20052;-66
2021/05/06 06:41:01;;;;;;;6.35;4.90;;;7.50;85.40;;;;;;5032092;28;20030;-65
2021/05/06 06:43:26;;;;;;;7.28;5.43;;;7.50;84.80;;;;;;5037101;28;20516;-66
2021/05/06 06:45:52;;;;;;;7.00;5.07;;;7.50;85.00;;;;;;5032702;28;20042;-67
2021/05/06 06:48:17;;;;;;;7.43;5.30;;;7.40;84.70;;;;;;5030916;28;20083;-66
2021/05/06 06:50:44;;;;;;;6.57;5.43;;;7.40;85.80;;;;;;5034572;28;20025;-67
2021/05/06 06:53:12;;;;;;;7.20;5.22;;;7.60;85.30;;;;;;5030478;28;20037;-65
2021/05/06 06:55:38;;;;;;;8.27;5.60;;;7.60;84.40;;;;;;5034913;28;20432;-65
2021/05/06 06:58:12;;;;;;;8.10;5.32;;;7.40;85.00;;;;;;5035822;28;20041;-66
2021/05/06 07:00:43;;;;;;;7.53;4.57;;;7.60;84.60;;;;;;5041472;28;20025;-67
2021/05/06 07:03:08;;;;;;;7.72;5.00;;;7.70;84.20;;;;;;5033839;28;20106;-67
2021/05/06 07:05:34;;;;;;;6.18;4.78;;;7.60;83.60;;;;;;5042123;28;20396;-67
2021/05/06 07:08:25;;;;;;;7.85;5.28;;;7.40;84.80;;;;;;5034608;28;20045;-67
2021/05/06 07:10:55;;;;;;;9.45;5.10;;;7.60;85.10;;;;;;5032704;28;20018;-67
2021/05/06 07:13:21;;;;;;;5.93;4.32;;;7.70;84.40;;;;;;5032757;28;20120;-67
2021/05/06 07:15:49;;;;;;;7.50;5.55;;;7.80;84.40;;;;;;5027021;28;20175;-67
2021/05/06 07:18:15;;;;;;;9.25;4.70;;;7.80;84.30;;;;;;5024428;28;20045;-69
2021/05/06 07:20:45;;;;;;;8.32;4.55;;;8.00;83.90;;;;;;5013693;28;20125;-65
2021/05/06 07:23:17;;;;;;;6.05;5.20;;;8.10;82.60;;;;;;5027418;28;20089;-65
2021/05/06 07:25:43;;;;;;;6.85;4.38;;;8.20;81.80;;;;;;5018854;28;20104;-61
2021/05/06 07:28:21;;;;;;;6.07;4.35;;;8.30;80.90;;;;;;5036939;28;20030;-65
2021/05/06 07:30:49;;;;;;;8.20;4.38;;;8.40;81.10;;;;;;5020096;28;20101;-64
2021/05/06 07:33:16;;;;;;;7.65;4.10;;;8.40;81.20;;;;;;5030775;28;20030;-64
2021/05/06 07:35:42;;;;;;;6.55;3.75;;;8.60;81.10;;;;;;5015855;28;20505;-66
2021/05/06 07:38:08;;;;;;;5.93;4.70;;;8.70;79.20;;;;;;5025659;28;20493;-65
2021/05/06 07:40:35;;;;;;;6.35;4.32;;;8.50;79.30;;;;;;5012632;28;20037;-67
2021/05/06 07:43:01;;;;;;;5.60;3.60;;;8.50;79.90;;;;;;5025516;28;20410;-67
2021/05/06 07:45:27;;;;;;;4.60;3.55;;;8.50;79.20;;;;;;5012585;28;20104;-65
2021/05/06 07:47:53;;;;;;;8.05;4.00;;;8.60;78.20;;;;;;5032016;28;20559;-65
2021/05/06 07:50:21;;;;;;;5.50;4.03;;;8.70;77.90;;;;;;5028431;28;20095;-66
2021/05/06 07:52:49;;;;;;;6.78;4.10;;;8.70;76.60;;;;;;5033522;28;20083;-68
2021/05/06 07:55:15;;;;;;;4.10;3.42;;;8.80;76.50;;;;;;5037902;28;20473;-66
2021/05/06 07:57:41;;;;;;;6.55;3.70;;;8.80;75.60;;;;;;5037874;28;20129;-66
2021/05/06 08:00:09;;;;;;;5.95;3.60;;;8.90;77.00;;;;;;5036418;28;20034;-66
2021/05/06 08:02:35;;;;;;;5.45;3.55;;;9.20;76.20;;;;;;5035751;28;20033;-66
2021/05/06 08:05:00;;;;;;;6.78;4.00;;;9.40;75.70;;;;;;5034310;28;20046;-66
2021/05/06 08:07:26;;;;;;;4.95;3.70;;;9.20;75.60;;;;;;5031275;28;20125;-67
2021/05/06 08:09:51;;;;;;;5.65;3.90;;;9.00;77.20;;;;;;5033264;28;20034;-66
2021/05/06 08:12:19;;;;;;;5.63;3.70;;;9.00;77.10;;;;;;5031894;28;20493;-67
2021/05/06 08:14:45;;;;;;;9.38;4.13;;;9.10;76.90;;;;;;5034761;28;20053;-66
2021/05/06 08:17:10;;;;;;;6.20;3.85;;;9.10;77.70;;;;;;5033217;28;20044;-65
2021/05/06 08:19:36;;;;;;;5.43;3.58;;;9.20;77.00;;;;;;5019099;28;20041;-65
2021/05/06 08:22:02;;;;;;;5.18;3.10;;;9.10;76.20;;;;;;5034140;28;20065;-66
2021/05/06 08:24:27;;;;;;;8.50;2.90;;;9.20;75.20;;;;;;5035814;28;20147;-66
2021/05/06 08:26:54;;;;;;;7.00;3.33;;;9.20;74.70;;;;;;5034267;28;20489;-68
2021/05/06 08:29:20;;;;;;;7.03;3.25;;;9.40;74.20;;;;;;5034788;28;20125;-66
2021/05/06 08:31:46;;;;;;;5.53;3.00;;;9.60;73.80;;;;;;5033104;28;20109;-67
2021/05/06 08:34:11;;;;;;;6.35;3.10;;;9.80;73.00;;;;;;5034458;28;20029;-67
2021/05/06 08:36:37;;;;;;;4.72;2.80;;;9.70;73.00;;;;;;5032681;28;20087;-67
2021/05/06 08:39:04;;;;;;;5.05;2.92;;;9.70;71.80;;;;;;5034928;28;20531;-67
2021/05/06 08:41:30;;;;;;;8.07;2.95;;;9.60;71.40;;;;;;5020893;28;20061;-67
2021/05/06 08:43:58;;;;;;;3.90;2.65;;;9.60;71.50;;;;;;5018519;28;20030;-67
2021/05/06 08:46:45;;;;;;;3.95;2.90;;;9.70;72.30;;;;;;5022088;28;20084;-65
2021/05/06 08:49:10;;;;;;;4.07;3.10;;;9.80;72.50;;;;;;5018963;28;20029;-67
2021/05/06 08:51:37;;;;;;;4.35;2.50;;;10.00;71.40;;;;;;5018774;28;20036;-65
2021/05/06 08:54:03;;;;;;;3.83;2.55;;;10.10;70.20;;;;;;5017097;28;20049;-70
2021/05/06 08:56:29;;;;;;;4.97;2.75;;;10.00;71.00;;;;;;5028922;28;20048;-64
2021/05/06 08:58:55;;;;;;;4.82;2.80;;;9.90;70.70;;;;;;5017541;28;20034;-65
2021/05/06 09:01:20;;;;;;;5.90;2.50;;;9.90;70.00;;;;;;5020392;28;20037;-66
2021/05/06 09:03:46;;;;;;;5.70;2.30;;;9.80;69.40;;;;;;5015061;28;20036;-65
2021/05/06 09:06:13;;;;;;;4.43;2.50;;;9.80;68.40;;;;;;5054036;28;20551;-65
2021/05/06 09:08:41;;;;;;;5.60;2.42;;;10.00;68.90;;;;;;5030857;28;20069;-67
2021/05/06 09:11:08;;;;;;;3.95;2.58;;;10.20;68.40;;;;;;5025885;28;20056;-64
2021/05/06 09:13:34;;;;;;;3.40;2.55;;;10.20;66.50;;;;;;5023917;28;20494;-66
2021/05/06 09:16:00;;;;;;;6.68;2.30;;;10.20;66.20;;;;;;5030649;28;20029;-65
2021/05/06 09:18:39;;;;;;;3.53;2.20;;;10.40;66.90;;;;;;5033631;28;20045;-66
2021/05/06 09:21:07;;;;;;;4.82;2.72;;;10.20;67.10;;;;;;5037799;28;20044;-64
2021/05/06 09:23:34;;;;;;;3.53;2.60;;;10.00;66.20;;;;;;5022898;28;20492;-62
2021/05/06 09:26:10;;;;;;;4.95;2.67;;;10.00;67.20;;;;;;5033930;28;20033;-66
2021/05/06 09:28:35;;;;;;;4.30;2.30;;;10.30;67.30;;;;;;5029342;28;20374;-66
2021/05/06 09:31:07;;;;;;;6.32;2.78;;;10.50;67.70;;;;;;5021207;28;20075;-64
2021/05/06 09:33:35;;;;;;;7.88;2.90;;;10.80;67.50;;;;;;5028275;28;20779;-65
2021/05/06 09:36:18;;;;;;;4.65;2.67;;;11.00;67.30;;;;;;5024045;28;20513;-65
2021/05/06 09:38:51;;;;;;;4.05;2.33;;;11.00;64.30;;;;;;5020353;28;20485;-66
2021/05/06 09:41:25;;;;;;;3.78;2.50;;;10.80;65.60;;;;;;5027634;28;20052;-66
2021/05/06 09:43:51;;;;;;;6.05;2.60;;;10.80;66.40;;;;;;5041140;28;20021;-66
2021/05/06 09:46:31;;;;;;;5.95;2.83;;;11.10;66.70;;;;;;5027786;28;20044;-65
2021/05/06 09:48:58;;;;;;;7.30;3.13;;;11.00;65.40;;;;;;5021846;28;20140;-67
2021/05/06 09:51:45;;;;;;;3.97;2.40;;;10.90;66.70;;;;;;5032747;28;20048;-65
2021/05/06 09:54:24;;;;;;;4.72;2.50;;;10.50;66.30;;;;;;5024030;28;20033;-65
2021/05/06 09:57:06;;;;;;;3.00;2.30;;;10.50;67.10;;;;;;5026590;28;20120;-66
2021/05/06 09:59:39;;;;;;;4.07;2.70;;;10.60;66.80;;;;;;5023695;28;20064;-64
2021/05/06 10:02:10;;;;;;;4.53;2.50;;;10.60;67.20;;;;;;5017560;28;20061;-65
2021/05/06 10:04:37;;;;;;;4.78;2.58;;;10.40;66.50;;;;;;5032557;28;20030;-65
2021/05/06 10:07:04;;;;;;;5.40;2.20;;;10.40;67.70;;;;;;5014577;28;20033;-65
2021/05/06 10:09:30;;;;;;;4.13;2.50;;;10.50;66.10;;;;;;5013958;28;20037;-66
2021/05/06 10:11:57;;;;;;;5.72;2.50;;;10.40;64.10;;;;;;5045389;28;20087;-63
2021/05/06 10:14:23;;;;;;;4.72;2.50;;;10.50;65.50;;;;;;5038581;28;20037;-64
2021/05/06 10:16:49;;;;;;;5.07;2.20;;;10.50;65.70;;;;;;5014211;28;20018;-64
2021/05/06 10:19:16;;;;;;;3.85;2.30;;;10.60;65.00;;;;;;5033643;28;20037;-66
2021/05/06 10:21:46;;;;;;;6.88;2.78;;;10.80;65.10;;;;;;5023535;28;20477;-67
2021/05/06 10:24:15;;;;;;;5.28;2.38;;;10.80;66.10;;;;;;5033918;28;20045;-66
2021/05/06 10:26:42;;;;;;;5.97;2.88;;;11.10;64.50;;;;;;5019764;28;20402;-66
2021/05/06 10:29:07;;;;;;;4.78;2.60;;;11.20;63.80;;;;;;5050931;28;20029;-66
2021/05/06 10:31:40;;;;;;;4.68;2.40;;;11.00;65.00;;;;;;5034689;28;20367;-65
2021/05/06 10:34:08;;;;;;;5.05;2.40;;;11.10;64.50;;;;;;5028932;28;20059;-65
2021/05/06 10:36:35;;;;;;;5.57;2.60;;;11.00;64.20;;;;;;5029713;28;20441;-67
2021/05/06 10:39:01;;;;;;;7.25;2.83;;;10.90;64.40;;;;;;5056916;28;20076;-67
2021/05/06 10:41:35;;;;;;;5.45;2.47;;;10.90;63.90;;;;;;5014703;28;20061;-66
2021/05/06 10:44:05;;;;;;;3.58;2.70;;;10.90;64.50;;;;;;5055556;28;20081;-65
2021/05/06 10:47:14;;;;;;;8.18;2.90;;;11.10;63.70;;;;;;5014080;28;20386;-66
2021/05/06 10:49:40;;;;;;;5.00;2.25;;;11.00;64.00;;;;;;5035176;28;20057;-65
2021/05/06 10:52:08;;;;;;;12.23;3.22;;;11.10;62.80;;;;;;5019027;28;20040;-64
2021/05/06 10:54:45;;;;;;;4.38;2.80;;;11.00;63.50;;;;;;5034951;28;20033;-64
2021/05/06 10:57:11;;;;;;;7.47;2.65;;;11.10;63.20;;;;;;5013930;28;20092;-66
2021/05/06 10:59:41;;;;;;;3.97;2.35;;;11.30;64.30;;;;;;5034594;28;20037;-64
2021/05/06 11:02:07;;;;;;;4.05;2.40;;;11.40;63.20;;;;;;5025024;28;20030;-66
2021/05/06 11:04:36;;;;;;;5.57;2.85;;;11.60;63.60;;;;;;5037333;28;20030;-65
2021/05/06 11:07:15;;;;;;;7.22;2.50;;;11.60;64.60;;;;;;5025984;28;20052;-63
2021/05/06 11:09:46;;;;;;;4.13;2.55;;;11.80;62.80;;;;;;5032683;28;20057;-64
2021/05/06 11:12:14;;;;;;;6.22;2.85;;;11.60;64.30;;;;;;5021329;28;20133;-64
2021/05/06 11:14:59;;;;;;;9.10;3.38;;;11.80;66.50;;;;;;5030131;28;20084;-66
2021/05/06 11:17:26;;;;;;;5.68;3.00;;;11.80;66.80;;;;;;5032978;28;20068;-64
2021/05/06 11:19:52;;;;;;;6.18;2.70;;;11.40;66.20;;;;;;5033611;28;20045;-65
2021/05/06 11:22:47;;;;;;;8.77;3.25;;;11.40;65.90;;;;;;5022729;28;20038;-65
2021/05/06 11:25:32;;;;;;;4.60;2.70;;;11.20;67.20;;;;;;5028866;28;20053;-64
2021/05/06 11:27:59;;;;;;;5.43;2.97;;;11.20;68.00;;;;;;5033846;28;20055;-65
2021/05/06 11:30:53;;;;;;;5.13;2.80;;;10.90;68.90;;;;;;5018406;28;20047;-66
2021/05/06 11:33:21;;;;;;;4.53;2.92;;;10.80;69.60;;;;;;5027638;28;20126;-63
2021/05/06 11:36:13;;;;;;;12.35;3.45;;;11.00;69.40;;;;;;5047341;28;20033;-64
2021/05/06 11:38:42;;;;;;;7.18;3.58;;;11.00;68.30;;;;;;5043308;28;20041;-64
2021/05/06 11:41:09;;;;;;;4.43;2.70;;;10.90;68.30;;;;;;5024257;28;20041;-63
2021/05/06 11:43:56;;;;;;;6.28;3.38;;;11.20;68.00;;;;;;5020125;28;20060;-64
2021/05/06 11:46:25;;;;;;;4.38;2.75;;;11.50;67.40;;;;;;5021139;28;20053;-65
2021/05/06 11:48:57;;;;;;;3.95;2.60;;;11.50;65.90;;;;;;5016100;28;20045;-66
2021/05/06 11:51:32;;;;;;;4.32;2.72;;;11.50;66.70;;;;;;5031131;28;20500;-64
2021/05/06 11:54:18;;;;;;;;;;;11.80;66.00;;;;;;5016645;28;20428;-65
2021/05/06 11:56:55;;;;;;;4.50;2.92;;;11.80;65.10;;;;;;5050170;28;19909;-66
2021/05/06 11:59:23;;;;;;;3.92;2.85;;;11.80;64.30;;;;;;5022232;28;20065;-64
2021/05/06 12:01:50;;;;;;;4.20;3.25;;;11.80;64.70;;;;;;5031396;28;20033;-64
2021/05/06 12:04:22;;;;;;;4.80;2.80;;;12.00;63.40;;;;;;5031177;28;20037;-65
2021/05/06 12:06:48;;;;;;;6.32;2.95;;;12.40;62.20;;;;;;5031161;28;20033;-63
2021/05/06 12:09:30;;;;;;;5.75;3.03;;;11.80;62.70;;;;;;5027332;28;20402;-64
2021/05/06 12:11:57;;;;;;;6.60;3.20;;;11.40;64.20;;;;;;5032360;28;20064;-64
2021/05/06 12:14:37;;;;;;;4.25;2.80;;;11.20;65.00;;;;;;5027341;28;20056;-65
2021/05/06 12:17:04;;;;;;;5.75;3.10;;;11.10;65.30;;;;;;5029788;28;20060;-65
2021/05/06 12:19:29;;;;;;;4.78;2.60;;;11.20;65.80;;;;;;5016314;28;20037;-64
2021/05/06 12:21:58;;;;;;;5.78;2.90;;;11.50;65.00;;;;;;5045927;28;20030;-65
2021/05/06 12:24:45;;;;;;;6.38;3.25;;;11.50;65.90;;;;;;5020000;28;20053;-64
2021/05/06 12:27:22;;;;;;;4.18;3.22;;;11.70;67.10;;;;;;5020812;28;20025;-65
2021/05/06 12:29:49;;;;;;;4.00;2.83;;;12.00;64.90;;;;;;5033114;28;20033;-65
2021/05/06 12:32:20;;;;;;;4.55;2.85;;;12.10;65.60;;;;;;5032321;28;20123;-65
2021/05/06 12:34:46;;;;;;;4.88;3.03;;;12.00;66.30;;;;;;5029522;28;20048;-66
2021/05/06 12:37:12;;;;;;;5.90;3.28;;;11.80;67.70;;;;;;5023974;28;20425;-64
2021/05/06 12:39:40;;;;;;;3.30;2.90;;;11.70;67.60;;;;;;5023704;28;20068;-64
2021/05/06 12:42:06;;;;;;;6.63;2.95;;;11.80;68.60;;;;;;5016845;28;20418;-62
2021/05/06 12:44:44;;;;;;;4.15;3.00;;;11.80;67.60;;;;;;5018299;28;20037;-63
2021/05/06 12:47:11;;;;;;;3.08;2.78;;;12.20;65.80;;;;;;5034579;28;20033;-66
2021/05/06 12:49:37;;;;;;;5.40;3.33;;;12.50;65.80;;;;;;5026080;28;20022;-64
2021/05/06 12:52:02;;;;;;;4.65;3.10;;;12.50;65.80;;;;;;5015812;28;20061;-64
2021/05/06 12:54:34;;;;;;;4.35;3.20;;;12.40;65.30;;;;;;5021997;28;20092;-64
2021/05/06 12:57:13;;;;;;;4.45;3.67;;;12.20;66.10;;;;;;5036849;28;20032;-63
2021/05/06 12:59:39;;;;;;;4.65;3.20;;;11.90;65.60;;;;;;5037504;28;20386;-64
2021/05/06 13:02:09;;;;;;;5.82;3.05;;;11.80;66.00;;;;;;5029765;28;20024;-65
2021/05/06 13:04:49;;;;;;;6.78;3.60;;;11.90;66.40;;;;;;5019270;28;20034;-64
2021/05/06 13:07:16;;;;;;;5.90;3.20;;;12.40;65.40;;;;;;5036280;28;20033;-64
2021/05/06 13:09:49;;;;;;;4.68;3.38;;;12.50;65.40;;;;;;5018200;28;20029;-64
2021/05/06 13:12:22;;;;;;;4.63;3.20;;;12.20;64.90;;;;;;5021686;28;20061;-64
2021/05/06 13:14:48;;;;;;;4.97;3.30;;;12.10;65.20;;;;;;5017463;28;20036;-65
2021/05/06 13:17:30;;;;;;;5.18;3.45;;;12.30;64.40;;;;;;5026700;28;20501;-67
2021/05/06 13:19:58;;;;;;;4.97;3.40;;;12.30;63.90;;;;;;5028452;28;20055;-65
2021/05/06 13:22:24;;;;;;;6.07;3.28;;;12.50;63.80;;;;;;5017165;28;20161;-63
2021/05/06 13:24:52;;;;;;;5.03;3.20;;;12.60;63.10;;;;;;5027304;28;20049;-65
2021/05/06 13:27:27;;;;;;;4.50;2.85;;;12.70;63.20;;;;;;5036624;28;20033;-65
2021/05/06 13:29:57;;;;;;;;;;;12.50;63.70;;;;;;5039006;28;20037;-64
2021/05/06 13:32:35;;;;;;;3.65;2.80;;;12.50;62.10;;;;;;5031846;28;19909;-65
2021/05/06 13:35:02;;;;;;;4.82;3.40;;;12.60;62.40;;;;;;5029923;28;20078;-64
2021/05/06 13:37:42;;;;;;;4.82;3.00;;;12.60;62.30;;;;;;5048537;28;20041;-65
2021/05/06 13:40:09;;;;;;;5.32;3.28;;;12.60;62.20;;;;;;5027054;28;20033;-65
2021/05/06 13:42:35;;;;;;;4.95;3.20;;;12.70;62.60;;;;;;5049506;28;20057;-64
2021/05/06 13:45:01;;;;;;;3.85;3.33;;;13.00;61.80;;;;;;5023899;28;20021;-64
2021/05/06 13:47:27;;;;;;;4.07;3.20;;;13.00;60.80;;;;;;5019795;28;20128;-66
2021/05/06 13:49:53;;;;;;;4.45;3.08;;;13.40;60.10;;;;;;5036452;28;20045;-66
2021/05/06 13:52:20;;;;;;;4.53;3.20;;;13.50;58.70;;;;;;5036180;28;20041;-65
2021/05/06 13:54:45;;;;;;;6.10;3.40;;;13.00;59.90;;;;;;5037648;28;20038;-64
2021/05/06 13:57:11;;;;;;;7.20;3.63;;;13.10;61.50;;;;;;5015533;28;20068;-65
2021/05/06 13:59:37;;;;;;;5.53;3.58;;;13.20;60.60;;;;;;5024222;28;20037;-65
2021/05/06 14:02:03;;;;;;;3.85;3.42;;;13.30;59.60;;;;;;5046712;28;20018;-65
2021/05/06 14:04:28;;;;;;;4.95;3.58;;;13.20;60.10;;;;;;5023706;28;20722;-65
2021/05/06 14:06:54;;;;;;;7.30;3.60;;;13.00;59.70;;;;;;5015521;28;20068;-65
2021/05/06 14:09:20;;;;;;;3.65;3.05;;;13.00;60.40;;;;;;5055006;28;20029;-66
2021/05/06 14:11:48;;;;;;;6.43;3.47;;;12.90;61.10;;;;;;5025379;28;20048;-66
2021/05/06 14:14:16;;;;;;;4.00;3.17;;;12.80;61.00;;;;;;5025455;28;20030;-66
2021/05/06 14:16:41;;;;;;;5.70;3.20;;;12.80;61.80;;;;;;5030261;28;20030;-70
2021/05/06 14:19:08;;;;;;;4.57;3.30;;;13.10;60.30;;;;;;5015075;28;20448;-65
2021/05/06 14:21:38;;;;;;;4.05;2.90;;;12.70;60.30;;;;;;5021435;28;20033;-66
2021/05/06 14:24:05;;;;;;;4.85;3.17;;;13.00;59.80;;;;;;5028535;28;20029;-64
2021/05/06 14:26:31;;;;;;;7.70;3.28;;;12.90;60.00;;;;;;5027395;28;20065;-63
2021/05/06 14:28:57;;;;;;;4.80;3.20;;;12.80;60.00;;;;;;5035084;28;20100;-65
2021/05/06 14:31:22;;;;;;;4.43;3.33;;;12.90;60.70;;;;;;5028458;28;20128;-64
2021/05/06 14:33:49;;;;;;;8.07;3.55;;;13.40;60.70;;;;;;5023455;28;20152;-66
2021/05/06 14:36:14;;;;;;;5.05;3.42;;;13.50;59.10;;;;;;5023842;28;20037;-66
2021/05/06 14:38:40;;;;;;;6.15;3.80;;;13.10;59.40;;;;;;5037174;28;20084;-66
2021/05/06 14:41:07;;;;;;;5.55;3.10;;;13.40;60.90;;;;;;5029949;28;20604;-66
2021/05/06 14:43:33;;;;;;;5.00;3.72;;;13.30;59.90;;;;;;5027810;28;20375;-64
2021/05/06 14:45:59;;;;;;;7.65;3.92;;;13.10;60.40;;;;;;5030718;28;20040;-65
2021/05/06 14:48:25;;;;;;;5.63;3.63;;;13.10;60.60;;;;;;5049023;28;20036;-65
2021/05/06 14:50:50;;;;;;;7.05;3.50;;;13.20;60.30;;;;;;5020575;28;20029;-66
2021/05/06 14:53:16;;;;;;;4.90;3.38;;;13.30;60.20;;;;;;5031189;28;20713;-64
2021/05/06 14:55:42;;;;;;;3.72;3.30;;;13.00;61.30;;;;;;5016638;28;20029;-65
2021/05/06 14:58:07;;;;;;;6.03;2.97;;;13.00;61.10;;;;;;5038220;28;20096;-65
2021/05/06 15:00:33;;;;;;;4.60;3.10;;;13.00;61.10;;;;;;5019866;28;20025;-64
2021/05/06 15:03:00;;;;;;;4.18;3.15;;;12.90;60.80;;;;;;5037604;28;20032;-65
2021/05/06 15:05:26;;;;;;;10.13;4.30;;;12.90;60.20;;;;;;5023379;28;20033;-66
2021/05/06 15:07:52;;;;;;;4.75;3.10;;;12.80;59.50;;;;;;5032117;28;20036;-65
2021/05/06 15:10:17;;;;;;;5.30;3.38;;;12.90;60.80;;;;;;5034347;28;20026;-64
2021/05/06 15:12:44;;;;;;;7.28;4.28;;;12.70;61.50;;;;;;5032364;28;20451;-65
2021/05/06 15:15:11;;;;;;;4.53;3.50;;;12.70;61.20;;;;;;5013133;28;20028;-66
2021/05/06 15:17:36;;;;;;;6.43;3.10;;;12.40;61.60;;;;;;5021451;28;20436;-66
2021/05/06 15:20:03;;;;;;;3.03;2.72;;;12.50;61.10;;;;;;5018441;28;20039;-65
2021/05/06 15:22:29;;;;;;;5.57;3.28;;;12.50;60.40;;;;;;5038285;28;20051;-66
2021/05/06 15:24:54;;;;;;;5.57;3.97;;;12.30;60.80;;;;;;5022974;28;20093;-66
2021/05/06 15:27:20;;;;;;;6.07;3.10;;;12.20;61.20;;;;;;5034764;28;20104;-65
2021/05/06 15:29:46;;;;;;;4.45;3.10;;;12.00;62.50;;;;;;5022057;28;20030;-65
2021/05/06 15:32:12;;;;;;;4.57;3.20;;;11.90;63.10;;;;;;5029008;28;20124;-66
2021/05/06 15:34:39;;;;;;;5.22;3.80;;;11.80;64.60;;;;;;5021302;28;20029;-65
2021/05/06 15:37:06;;;;;;;3.63;2.95;;;11.80;65.30;;;;;;5014965;28;20036;-63
2021/05/06 15:39:31;;;;;;;4.22;3.30;;;11.90;64.20;;;;;;5031726;28;20037;-65
2021/05/06 15:41:57;;;;;;;8.45;3.30;;;12.00;62.30;;;;;;5018124;28;20389;-65
2021/05/06 15:44:23;;;;;;;3.55;3.00;;;12.20;62.30;;;;;;5033639;28;20504;-64
2021/05/06 15:46:48;;;;;;;4.15;3.22;;;12.20;61.90;;;;;;5024723;28;20046;-65
2021/05/06 15:49:14;;;;;;;3.95;3.13;;;12.30;62.50;;;;;;5011174;28;20030;-64
2021/05/06 15:51:39;;;;;;;5.78;3.42;;;12.70;62.80;;;;;;5038673;28;20044;-65
2021/05/06 15:54:07;;;;;;;4.63;3.22;;;12.70;63.00;;;;;;5042139;28;20025;-65
2021/05/06 15:56:32;;;;;;;5.63;3.20;;;12.80;61.20;;;;;;5016206;28;20159;-65
2021/05/06 15:59:00;;;;;;;4.68;3.47;;;13.00;62.30;;;;;;5050384;28;20546;-65
2021/05/06 16:01:27;;;;;;;4.22;3.20;;;13.30;61.40;;;;;;5044696;28;20046;-65
2021/05/06 16:04:01;;;;;;;6.57;3.60;;;13.50;60.90;;;;;;5052060;28;20038;-64
2021/05/06 16:06:27;;;;;;;4.38;3.25;;;13.60;60.70;;;;;;5026501;28;20072;-64
2021/05/06 16:08:52;;;;;;;5.05;3.20;;;13.30;60.20;;;;;;5032533;28;20465;-65
2021/05/06 16:11:18;;;;;;;4.80;3.42;;;13.20;59.50;;;;;;5018773;28;20030;-64
2021/05/06 16:13:44;;;;;;;4.78;3.40;;;13.10;59.60;;;;;;5035619;28;20034;-65
2021/05/06 16:16:09;;;;;;;6.50;3.10;;;13.10;59.90;;;;;;5034624;28;20033;-67
2021/05/06 16:18:39;;;;;;;4.15;3.08;;;13.20;59.60;;;;;;5017908;28;20087;-64